sensor_id;sensor_type;location;lat;lon;timestamp;P1;durP1;ratioP1;P2;durP2;ratioP2
11596;SDS011;5854;48.072;16.286;2023-10-08T00:01:11;0.95;;;0.88;;
11596;SDS011;5854;48.072;16.286;2023-10-08T00:03:49;3.67;;;1.35;;
11596;SDS011;5854;48.072;16.286;2023-10-08T00:06:27;1.88;;;0.73;;
11596;SDS011;5854;48.072;16.286;2023-10-08T00:09:11;3.72;;;0.95;;
11596;SDS011;5854;48.072;16.286;2023-10-08T00:11:52;2.63;;;1.10;;
11596;SDS011;5854;48.072;16.286;2023-10-08T00:14:37;4.55;;;1.52;;
11596;SDS011;5854;48.072;16.286;2023-10-08T00:17:19;3.30;;;0.90;;
11596;SDS011;5854;48.072;16.286;2023-10-08T00:19:55;3.88;;;1.52;;
11596;SDS011;5854;48.072;16.286;2023-10-08T00:22:38;3.17;;;1.23;;
11596;SDS011;5854;48.072;16.286;2023-10-08T00:25:15;2.30;;;1.08;;
11596;SDS011;5854;48.072;16.286;2023-10-08T00:27:59;2.20;;;1.13;;
11596;SDS011;5854;48.072;16.286;2023-10-08T00:30:42;1.45;;;1.05;;
11596;SDS011;5854;48.072;16.286;2023-10-08T00:33:27;3.83;;;1.30;;
11596;SDS011;5854;48.072;16.286;2023-10-08T00:36:11;4.13;;;1.33;;
11596;SDS011;5854;48.072;16.286;2023-10-08T00:38:56;6.28;;;1.65;;
11596;SDS011;5854;48.072;16.286;2023-10-08T00:41:42;2.75;;;1.17;;
11596;SDS011;5854;48.072;16.286;2023-10-08T00:44:32;2.40;;;1.40;;
11596;SDS011;5854;48.072;16.286;2023-10-08T00:47:16;2.15;;;1.05;;
11596;SDS011;5854;48.072;16.286;2023-10-08T00:49:59;1.60;;;1.27;;
11596;SDS011;5854;48.072;16.286;2023-10-08T00:52:35;3.40;;;1.30;;
11596;SDS011;5854;48.072;16.286;2023-10-08T00:55:23;5.03;;;1.55;;
11596;SDS011;5854;48.072;16.286;2023-10-08T00:58:12;6.10;;;1.73;;
11596;SDS011;5854;48.072;16.286;2023-10-08T01:00:58;1.75;;;1.17;;
11596;SDS011;5854;48.072;16.286;2023-10-08T01:03:40;5.28;;;1.65;;
11596;SDS011;5854;48.072;16.286;2023-10-08T01:09:14;4.72;;;1.10;;
11596;SDS011;5854;48.072;16.286;2023-10-08T01:12:08;3.22;;;1.27;;
11596;SDS011;5854;48.072;16.286;2023-10-08T01:14:53;6.40;;;1.83;;
11596;SDS011;5854;48.072;16.286;2023-10-08T01:17:47;1.70;;;1.27;;
11596;SDS011;5854;48.072;16.286;2023-10-08T01:20:31;13.43;;;2.17;;
11596;SDS011;5854;48.072;16.286;2023-10-08T01:23:09;2.67;;;1.30;;
11596;SDS011;5854;48.072;16.286;2023-10-08T01:25:38;10.35;;;1.83;;
11596;SDS011;5854;48.072;16.286;2023-10-08T01:28:10;6.07;;;1.70;;
11596;SDS011;5854;48.072;16.286;2023-10-08T01:30:52;3.08;;;1.25;;
11596;SDS011;5854;48.072;16.286;2023-10-08T01:33:32;2.05;;;1.13;;
11596;SDS011;5854;48.072;16.286;2023-10-08T01:36:08;1.00;;;0.90;;
11596;SDS011;5854;48.072;16.286;2023-10-08T01:38:49;1.75;;;1.20;;
11596;SDS011;5854;48.072;16.286;2023-10-08T01:41:22;4.00;;;1.65;;
11596;SDS011;5854;48.072;16.286;2023-10-08T01:44:02;2.47;;;1.60;;
11596;SDS011;5854;48.072;16.286;2023-10-08T01:46:38;5.22;;;1.13;;
11596;SDS011;5854;48.072;16.286;2023-10-08T01:49:27;3.38;;;1.05;;
11596;SDS011;5854;48.072;16.286;2023-10-08T01:52:02;4.45;;;1.80;;
11596;SDS011;5854;48.072;16.286;2023-10-08T01:54:49;4.80;;;1.38;;
11596;SDS011;5854;48.072;16.286;2023-10-08T01:57:32;2.38;;;1.05;;
11596;SDS011;5854;48.072;16.286;2023-10-08T02:00:17;3.20;;;1.38;;
11596;SDS011;5854;48.072;16.286;2023-10-08T02:03:00;2.17;;;1.48;;
11596;SDS011;5854;48.072;16.286;2023-10-08T02:05:33;3.03;;;1.25;;
11596;SDS011;5854;48.072;16.286;2023-10-08T02:08:15;2.85;;;1.48;;
11596;SDS011;5854;48.072;16.286;2023-10-08T02:10:52;2.42;;;1.30;;
11596;SDS011;5854;48.072;16.286;2023-10-08T02:13:29;1.42;;;1.20;;
11596;SDS011;5854;48.072;16.286;2023-10-08T02:16:14;6.13;;;1.23;;
11596;SDS011;5854;48.072;16.286;2023-10-08T02:18:57;4.75;;;1.40;;
11596;SDS011;5854;48.072;16.286;2023-10-08T02:21:32;1.90;;;1.30;;
11596;SDS011;5854;48.072;16.286;2023-10-08T02:24:08;5.15;;;0.93;;
11596;SDS011;5854;48.072;16.286;2023-10-08T02:29:14;2.33;;;1.33;;
11596;SDS011;5854;48.072;16.286;2023-10-08T02:31:57;1.05;;;0.95;;
11596;SDS011;5854;48.072;16.286;2023-10-08T02:34:39;5.18;;;1.38;;
11596;SDS011;5854;48.072;16.286;2023-10-08T02:37:17;2.00;;;1.30;;
11596;SDS011;5854;48.072;16.286;2023-10-08T02:39:52;2.60;;;1.20;;
11596;SDS011;5854;48.072;16.286;2023-10-08T02:42:24;4.13;;;1.10;;
11596;SDS011;5854;48.072;16.286;2023-10-08T02:44:52;1.38;;;1.00;;
11596;SDS011;5854;48.072;16.286;2023-10-08T02:47:26;2.03;;;1.27;;
11596;SDS011;5854;48.072;16.286;2023-10-08T02:49:55;2.08;;;1.20;;
11596;SDS011;5854;48.072;16.286;2023-10-08T02:52:45;2.45;;;1.20;;
11596;SDS011;5854;48.072;16.286;2023-10-08T02:55:17;3.05;;;1.85;;
11596;SDS011;5854;48.072;16.286;2023-10-08T02:58:05;5.90;;;1.48;;
11596;SDS011;5854;48.072;16.286;2023-10-08T03:00:42;1.23;;;0.90;;
11596;SDS011;5854;48.072;16.286;2023-10-08T03:03:29;4.85;;;1.77;;
11596;SDS011;5854;48.072;16.286;2023-10-08T03:06:10;2.88;;;1.33;;
11596;SDS011;5854;48.072;16.286;2023-10-08T03:08:47;2.58;;;1.63;;
11596;SDS011;5854;48.072;16.286;2023-10-08T03:11:39;2.47;;;0.82;;
11596;SDS011;5854;48.072;16.286;2023-10-08T03:14:15;2.97;;;1.30;;
11596;SDS011;5854;48.072;16.286;2023-10-08T03:16:55;3.08;;;1.38;;
11596;SDS011;5854;48.072;16.286;2023-10-08T03:19:37;3.13;;;1.20;;
11596;SDS011;5854;48.072;16.286;2023-10-08T03:22:16;8.27;;;1.75;;
11596;SDS011;5854;48.072;16.286;2023-10-08T03:25:02;3.28;;;1.10;;
11596;SDS011;5854;48.072;16.286;2023-10-08T03:27:44;2.33;;;1.17;;
11596;SDS011;5854;48.072;16.286;2023-10-08T03:30:32;14.70;;;1.55;;
11596;SDS011;5854;48.072;16.286;2023-10-08T03:33:29;6.10;;;1.52;;
11596;SDS011;5854;48.072;16.286;2023-10-08T03:36:07;3.85;;;1.65;;
11596;SDS011;5854;48.072;16.286;2023-10-08T03:38:46;3.55;;;1.40;;
11596;SDS011;5854;48.072;16.286;2023-10-08T03:41:22;3.33;;;1.83;;
11596;SDS011;5854;48.072;16.286;2023-10-08T03:43:58;1.92;;;1.30;;
11596;SDS011;5854;48.072;16.286;2023-10-08T03:46:33;2.35;;;1.15;;
11596;SDS011;5854;48.072;16.286;2023-10-08T03:49:25;2.40;;;1.10;;
11596;SDS011;5854;48.072;16.286;2023-10-08T03:52:04;2.43;;;1.40;;
11596;SDS011;5854;48.072;16.286;2023-10-08T03:54:38;2.95;;;1.50;;
11596;SDS011;5854;48.072;16.286;2023-10-08T03:57:30;4.85;;;1.30;;
11596;SDS011;5854;48.072;16.286;2023-10-08T04:00:08;2.55;;;1.35;;
11596;SDS011;5854;48.072;16.286;2023-10-08T04:02:56;2.50;;;1.42;;
11596;SDS011;5854;48.072;16.286;2023-10-08T04:05:33;2.90;;;1.60;;
11596;SDS011;5854;48.072;16.286;2023-10-08T04:08:32;3.55;;;1.33;;
11596;SDS011;5854;48.072;16.286;2023-10-08T04:11:27;2.38;;;1.38;;
11596;SDS011;5854;48.072;16.286;2023-10-08T04:14:02;2.28;;;0.88;;
11596;SDS011;5854;48.072;16.286;2023-10-08T04:19:15;1.35;;;1.05;;
11596;SDS011;5854;48.072;16.286;2023-10-08T04:21:50;3.15;;;1.30;;
11596;SDS011;5854;48.072;16.286;2023-10-08T04:24:34;2.50;;;1.13;;
11596;SDS011;5854;48.072;16.286;2023-10-08T04:27:11;6.25;;;0.88;;
11596;SDS011;5854;48.072;16.286;2023-10-08T04:29:56;2.33;;;1.15;;
11596;SDS011;5854;48.072;16.286;2023-10-08T04:32:29;4.53;;;1.45;;
11596;SDS011;5854;48.072;16.286;2023-10-08T04:35:19;2.88;;;1.33;;
11596;SDS011;5854;48.072;16.286;2023-10-08T04:38:13;3.20;;;1.45;;
11596;SDS011;5854;48.072;16.286;2023-10-08T04:40:52;4.03;;;1.30;;
11596;SDS011;5854;48.072;16.286;2023-10-08T04:43:39;3.50;;;1.42;;
11596;SDS011;5854;48.072;16.286;2023-10-08T04:46:22;5.88;;;1.90;;
11596;SDS011;5854;48.072;16.286;2023-10-08T04:49:14;3.40;;;1.00;;
11596;SDS011;5854;48.072;16.286;2023-10-08T04:54:45;9.07;;;1.00;;
11596;SDS011;5854;48.072;16.286;2023-10-08T04:57:40;2.90;;;1.30;;
11596;SDS011;5854;48.072;16.286;2023-10-08T05:00:27;3.22;;;1.20;;
11596;SDS011;5854;48.072;16.286;2023-10-08T05:03:22;1.95;;;1.27;;
11596;SDS011;5854;48.072;16.286;2023-10-08T05:06:12;3.47;;;1.40;;
11596;SDS011;5854;48.072;16.286;2023-10-08T05:09:08;5.20;;;1.10;;
11596;SDS011;5854;48.072;16.286;2023-10-08T05:12:05;3.00;;;1.10;;
11596;SDS011;5854;48.072;16.286;2023-10-08T05:14:55;7.15;;;1.45;;
11596;SDS011;5854;48.072;16.286;2023-10-08T05:17:59;2.05;;;1.15;;
11596;SDS011;5854;48.072;16.286;2023-10-08T05:21:03;4.30;;;1.38;;
11596;SDS011;5854;48.072;16.286;2023-10-08T05:23:51;5.25;;;1.58;;
11596;SDS011;5854;48.072;16.286;2023-10-08T05:26:43;5.43;;;2.13;;
11596;SDS011;5854;48.072;16.286;2023-10-08T05:29:26;2.67;;;1.13;;
11596;SDS011;5854;48.072;16.286;2023-10-08T05:32:21;7.32;;;1.90;;
11596;SDS011;5854;48.072;16.286;2023-10-08T05:35:17;3.63;;;1.70;;
11596;SDS011;5854;48.072;16.286;2023-10-08T05:38:15;1.63;;;0.93;;
11596;SDS011;5854;48.072;16.286;2023-10-08T05:41:14;4.00;;;1.23;;
11596;SDS011;5854;48.072;16.286;2023-10-08T05:44:00;3.08;;;1.33;;
11596;SDS011;5854;48.072;16.286;2023-10-08T05:46:55;3.63;;;1.10;;
11596;SDS011;5854;48.072;16.286;2023-10-08T05:49:50;2.78;;;1.27;;
11596;SDS011;5854;48.072;16.286;2023-10-08T05:52:35;4.00;;;1.70;;
11596;SDS011;5854;48.072;16.286;2023-10-08T05:55:20;3.43;;;1.33;;
11596;SDS011;5854;48.072;16.286;2023-10-08T05:57:52;2.45;;;1.58;;
11596;SDS011;5854;48.072;16.286;2023-10-08T06:01:13;5.50;;;1.35;;
11596;SDS011;5854;48.072;16.286;2023-10-08T06:04:07;10.73;;;2.03;;
11596;SDS011;5854;48.072;16.286;2023-10-08T06:07:08;1.48;;;0.75;;
11596;SDS011;5854;48.072;16.286;2023-10-08T06:09:49;3.38;;;1.80;;
11596;SDS011;5854;48.072;16.286;2023-10-08T06:12:27;4.35;;;1.60;;
11596;SDS011;5854;48.072;16.286;2023-10-08T06:15:14;1.63;;;0.90;;
11596;SDS011;5854;48.072;16.286;2023-10-08T06:18:12;3.03;;;1.17;;
11596;SDS011;5854;48.072;16.286;2023-10-08T06:20:44;5.10;;;1.45;;
11596;SDS011;5854;48.072;16.286;2023-10-08T06:23:26;2.85;;;1.65;;
11596;SDS011;5854;48.072;16.286;2023-10-08T06:28:30;3.85;;;1.45;;
11596;SDS011;5854;48.072;16.286;2023-10-08T06:31:00;2.85;;;0.98;;
11596;SDS011;5854;48.072;16.286;2023-10-08T06:33:33;5.50;;;1.90;;
11596;SDS011;5854;48.072;16.286;2023-10-08T06:36:02;3.92;;;1.08;;
11596;SDS011;5854;48.072;16.286;2023-10-08T06:38:38;3.55;;;1.50;;
11596;SDS011;5854;48.072;16.286;2023-10-08T06:41:08;2.88;;;1.17;;
11596;SDS011;5854;48.072;16.286;2023-10-08T06:43:40;2.38;;;1.40;;
11596;SDS011;5854;48.072;16.286;2023-10-08T06:48:41;6.78;;;1.58;;
11596;SDS011;5854;48.072;16.286;2023-10-08T06:51:10;2.90;;;1.55;;
11596;SDS011;5854;48.072;16.286;2023-10-08T06:53:51;2.10;;;1.17;;
11596;SDS011;5854;48.072;16.286;2023-10-08T06:56:22;2.47;;;1.55;;
11596;SDS011;5854;48.072;16.286;2023-10-08T06:58:51;3.05;;;1.30;;
11596;SDS011;5854;48.072;16.286;2023-10-08T07:01:22;3.78;;;1.52;;
11596;SDS011;5854;48.072;16.286;2023-10-08T07:04:08;10.75;;;1.70;;
11596;SDS011;5854;48.072;16.286;2023-10-08T07:06:40;9.15;;;1.55;;
11596;SDS011;5854;48.072;16.286;2023-10-08T07:09:12;1.83;;;1.45;;
11596;SDS011;5854;48.072;16.286;2023-10-08T07:11:54;5.57;;;1.35;;
11596;SDS011;5854;48.072;16.286;2023-10-08T07:14:31;3.05;;;1.35;;
11596;SDS011;5854;48.072;16.286;2023-10-08T07:17:00;6.35;;;1.48;;
11596;SDS011;5854;48.072;16.286;2023-10-08T07:19:36;8.23;;;1.80;;
11596;SDS011;5854;48.072;16.286;2023-10-08T07:22:07;5.25;;;1.40;;
11596;SDS011;5854;48.072;16.286;2023-10-08T07:24:47;3.45;;;1.55;;
11596;SDS011;5854;48.072;16.286;2023-10-08T07:27:17;2.83;;;1.08;;
11596;SDS011;5854;48.072;16.286;2023-10-08T07:29:55;5.63;;;1.55;;
11596;SDS011;5854;48.072;16.286;2023-10-08T07:32:35;4.65;;;1.50;;
11596;SDS011;5854;48.072;16.286;2023-10-08T07:35:07;3.90;;;1.45;;
11596;SDS011;5854;48.072;16.286;2023-10-08T07:37:50;7.80;;;1.98;;
11596;SDS011;5854;48.072;16.286;2023-10-08T07:40:20;2.97;;;1.48;;
11596;SDS011;5854;48.072;16.286;2023-10-08T07:42:58;2.30;;;1.40;;
11596;SDS011;5854;48.072;16.286;2023-10-08T07:45:45;2.72;;;1.33;;
11596;SDS011;5854;48.072;16.286;2023-10-08T07:48:31;2.90;;;1.30;;
11596;SDS011;5854;48.072;16.286;2023-10-08T07:51:01;5.60;;;1.23;;
11596;SDS011;5854;48.072;16.286;2023-10-08T07:53:30;2.40;;;1.13;;
11596;SDS011;5854;48.072;16.286;2023-10-08T07:56:06;9.60;;;1.30;;
11596;SDS011;5854;48.072;16.286;2023-10-08T07:58:36;7.85;;;1.20;;
11596;SDS011;5854;48.072;16.286;2023-10-08T08:01:05;2.50;;;1.25;;
11596;SDS011;5854;48.072;16.286;2023-10-08T08:03:38;1.98;;;1.40;;
11596;SDS011;5854;48.072;16.286;2023-10-08T08:06:13;2.15;;;1.40;;
11596;SDS011;5854;48.072;16.286;2023-10-08T08:08:43;5.72;;;1.20;;
11596;SDS011;5854;48.072;16.286;2023-10-08T08:11:13;3.67;;;1.90;;
11596;SDS011;5854;48.072;16.286;2023-10-08T08:13:44;9.52;;;2.30;;
11596;SDS011;5854;48.072;16.286;2023-10-08T08:16:14;6.10;;;1.70;;
11596;SDS011;5854;48.072;16.286;2023-10-08T08:18:47;3.47;;;1.05;;
11596;SDS011;5854;48.072;16.286;2023-10-08T08:21:28;3.40;;;1.35;;
11596;SDS011;5854;48.072;16.286;2023-10-08T08:23:59;5.47;;;1.85;;
11596;SDS011;5854;48.072;16.286;2023-10-08T08:26:34;9.20;;;1.45;;
11596;SDS011;5854;48.072;16.286;2023-10-08T08:29:10;2.80;;;1.55;;
11596;SDS011;5854;48.072;16.286;2023-10-08T08:31:40;3.20;;;0.88;;
11596;SDS011;5854;48.072;16.286;2023-10-08T08:34:12;4.45;;;1.17;;
11596;SDS011;5854;48.072;16.286;2023-10-08T08:36:46;7.70;;;1.38;;
11596;SDS011;5854;48.072;16.286;2023-10-08T08:39:17;3.88;;;1.58;;
11596;SDS011;5854;48.072;16.286;2023-10-08T08:41:58;3.40;;;1.60;;
11596;SDS011;5854;48.072;16.286;2023-10-08T08:44:27;5.57;;;1.58;;
11596;SDS011;5854;48.072;16.286;2023-10-08T08:46:59;6.13;;;1.75;;
11596;SDS011;5854;48.072;16.286;2023-10-08T08:49:32;5.78;;;1.38;;
11596;SDS011;5854;48.072;16.286;2023-10-08T08:52:04;2.73;;;1.20;;
11596;SDS011;5854;48.072;16.286;2023-10-08T08:54:31;2.50;;;1.40;;
11596;SDS011;5854;48.072;16.286;2023-10-08T08:56:59;3.95;;;1.50;;
11596;SDS011;5854;48.072;16.286;2023-10-08T08:59:31;3.33;;;1.77;;
11596;SDS011;5854;48.072;16.286;2023-10-08T09:02:02;8.43;;;1.67;;
11596;SDS011;5854;48.072;16.286;2023-10-08T09:04:33;1.40;;;1.00;;
11596;SDS011;5854;48.072;16.286;2023-10-08T09:07:04;3.05;;;1.40;;
11596;SDS011;5854;48.072;16.286;2023-10-08T09:09:33;3.28;;;1.48;;
11596;SDS011;5854;48.072;16.286;2023-10-08T09:12:05;3.35;;;1.20;;
11596;SDS011;5854;48.072;16.286;2023-10-08T09:14:35;2.05;;;1.42;;
11596;SDS011;5854;48.072;16.286;2023-10-08T09:17:04;5.10;;;1.73;;
11596;SDS011;5854;48.072;16.286;2023-10-08T09:19:35;3.35;;;1.27;;
11596;SDS011;5854;48.072;16.286;2023-10-08T09:24:36;3.55;;;1.33;;
11596;SDS011;5854;48.072;16.286;2023-10-08T09:27:05;2.45;;;1.42;;
11596;SDS011;5854;48.072;16.286;2023-10-08T09:29:34;4.18;;;1.42;;
11596;SDS011;5854;48.072;16.286;2023-10-08T09:32:05;2.83;;;1.70;;
11596;SDS011;5854;48.072;16.286;2023-10-08T09:34:35;6.93;;;2.08;;
11596;SDS011;5854;48.072;16.286;2023-10-08T09:37:03;2.15;;;1.67;;
11596;SDS011;5854;48.072;16.286;2023-10-08T09:39:33;7.28;;;1.50;;
11596;SDS011;5854;48.072;16.286;2023-10-08T09:42:02;4.50;;;1.80;;
11596;SDS011;5854;48.072;16.286;2023-10-08T09:44:31;2.40;;;1.33;;
11596;SDS011;5854;48.072;16.286;2023-10-08T09:47:00;1.02;;;0.82;;
11596;SDS011;5854;48.072;16.286;2023-10-08T09:49:32;1.05;;;0.65;;
11596;SDS011;5854;48.072;16.286;2023-10-08T09:52:04;2.50;;;0.70;;
11596;SDS011;5854;48.072;16.286;2023-10-08T09:54:36;1.33;;;0.70;;
11596;SDS011;5854;48.072;16.286;2023-10-08T09:57:10;1.73;;;0.68;;
11596;SDS011;5854;48.072;16.286;2023-10-08T09:59:38;2.53;;;0.70;;
11596;SDS011;5854;48.072;16.286;2023-10-08T10:02:07;2.97;;;0.60;;
11596;SDS011;5854;48.072;16.286;2023-10-08T10:04:36;0.32;;;0.32;;
11596;SDS011;5854;48.072;16.286;2023-10-08T10:07:12;1.23;;;0.40;;
11596;SDS011;5854;48.072;16.286;2023-10-08T10:09:43;0.65;;;0.50;;
11596;SDS011;5854;48.072;16.286;2023-10-08T10:12:12;0.20;;;0.20;;
11596;SDS011;5854;48.072;16.286;2023-10-08T10:14:51;0.32;;;0.20;;
11596;SDS011;5854;48.072;16.286;2023-10-08T10:17:21;0.55;;;0.32;;
11596;SDS011;5854;48.072;16.286;2023-10-08T10:19:53;0.20;;;0.20;;
11596;SDS011;5854;48.072;16.286;2023-10-08T10:22:30;0.15;;;0.15;;
11596;SDS011;5854;48.072;16.286;2023-10-08T10:25:00;1.65;;;0.28;;
11596;SDS011;5854;48.072;16.286;2023-10-08T10:27:40;0.20;;;0.20;;
11596;SDS011;5854;48.072;16.286;2023-10-08T10:30:10;0.20;;;0.20;;
11596;SDS011;5854;48.072;16.286;2023-10-08T10:32:44;0.30;;;0.30;;
11596;SDS011;5854;48.072;16.286;2023-10-08T10:35:14;0.10;;;0.10;;
11596;SDS011;5854;48.072;16.286;2023-10-08T10:37:46;0.13;;;0.10;;
11596;SDS011;5854;48.072;16.286;2023-10-08T10:40:19;0.10;;;0.10;;
11596;SDS011;5854;48.072;16.286;2023-10-08T10:42:55;0.20;;;0.20;;
11596;SDS011;5854;48.072;16.286;2023-10-08T10:45:28;0.95;;;0.17;;
11596;SDS011;5854;48.072;16.286;2023-10-08T10:48:07;1.05;;;0.20;;
11596;SDS011;5854;48.072;16.286;2023-10-08T10:50:39;0.10;;;0.10;;
11596;SDS011;5854;48.072;16.286;2023-10-08T10:53:17;3.00;;;0.20;;
11596;SDS011;5854;48.072;16.286;2023-10-08T10:55:45;0.13;;;0.13;;
11596;SDS011;5854;48.072;16.286;2023-10-08T10:58:24;1.17;;;0.17;;
11596;SDS011;5854;48.072;16.286;2023-10-08T11:00:53;0.10;;;0.10;;
11596;SDS011;5854;48.072;16.286;2023-10-08T11:03:25;0.20;;;0.20;;
11596;SDS011;5854;48.072;16.286;2023-10-08T11:05:57;0.20;;;0.20;;
11596;SDS011;5854;48.072;16.286;2023-10-08T11:08:33;3.60;;;0.40;;
11596;SDS011;5854;48.072;16.286;2023-10-08T11:11:01;0.17;;;0.17;;
11596;SDS011;5854;48.072;16.286;2023-10-08T11:13:32;4.75;;;0.40;;
11596;SDS011;5854;48.072;16.286;2023-10-08T11:16:04;0.30;;;0.30;;
11596;SDS011;5854;48.072;16.286;2023-10-08T11:18:42;0.73;;;0.52;;
11596;SDS011;5854;48.072;16.286;2023-10-08T11:21:12;0.40;;;0.40;;
11596;SDS011;5854;48.072;16.286;2023-10-08T11:23:43;0.63;;;0.20;;
11596;SDS011;5854;48.072;16.286;2023-10-08T11:26:21;1.83;;;0.38;;
11596;SDS011;5854;48.072;16.286;2023-10-08T11:29:00;0.70;;;0.50;;
11596;SDS011;5854;48.072;16.286;2023-10-08T11:31:30;0.40;;;0.30;;
11596;SDS011;5854;48.072;16.286;2023-10-08T11:34:02;0.53;;;0.40;;
11596;SDS011;5854;48.072;16.286;2023-10-08T11:36:39;0.60;;;0.30;;
11596;SDS011;5854;48.072;16.286;2023-10-08T11:39:20;0.75;;;0.65;;
11596;SDS011;5854;48.072;16.286;2023-10-08T11:41:56;0.88;;;0.80;;
11596;SDS011;5854;48.072;16.286;2023-10-08T11:44:29;1.02;;;0.50;;
11596;SDS011;5854;48.072;16.286;2023-10-08T11:47:03;2.63;;;1.48;;
11596;SDS011;5854;48.072;16.286;2023-10-08T11:49:49;1.33;;;0.70;;
11596;SDS011;5854;48.072;16.286;2023-10-08T11:52:35;4.78;;;1.10;;
11596;SDS011;5854;48.072;16.286;2023-10-08T11:55:12;1.27;;;0.90;;
11596;SDS011;5854;48.072;16.286;2023-10-08T11:57:45;2.78;;;2.28;;
11596;SDS011;5854;48.072;16.286;2023-10-08T12:00:16;1.52;;;1.40;;
11596;SDS011;5854;48.072;16.286;2023-10-08T12:02:49;6.25;;;2.53;;
11596;SDS011;5854;48.072;16.286;2023-10-08T12:05:19;1.67;;;0.90;;
11596;SDS011;5854;48.072;16.286;2023-10-08T12:07:51;0.75;;;0.70;;
11596;SDS011;5854;48.072;16.286;2023-10-08T12:10:28;3.75;;;0.98;;
11596;SDS011;5854;48.072;16.286;2023-10-08T12:12:59;1.90;;;1.45;;
11596;SDS011;5854;48.072;16.286;2023-10-08T12:15:31;1.25;;;1.15;;
11596;SDS011;5854;48.072;16.286;2023-10-08T12:18:03;0.88;;;0.85;;
11596;SDS011;5854;48.072;16.286;2023-10-08T12:20:38;2.80;;;0.90;;
11596;SDS011;5854;48.072;16.286;2023-10-08T12:23:17;0.77;;;0.50;;
11596;SDS011;5854;48.072;16.286;2023-10-08T12:25:52;0.40;;;0.40;;
11596;SDS011;5854;48.072;16.286;2023-10-08T12:28:21;0.40;;;0.40;;
11596;SDS011;5854;48.072;16.286;2023-10-08T12:30:49;0.40;;;0.40;;
11596;SDS011;5854;48.072;16.286;2023-10-08T12:33:19;0.28;;;0.28;;
11596;SDS011;5854;48.072;16.286;2023-10-08T12:35:49;0.38;;;0.38;;
11596;SDS011;5854;48.072;16.286;2023-10-08T12:38:18;1.02;;;0.30;;
11596;SDS011;5854;48.072;16.286;2023-10-08T12:40:47;0.30;;;0.30;;
11596;SDS011;5854;48.072;16.286;2023-10-08T12:43:22;0.32;;;0.30;;
11596;SDS011;5854;48.072;16.286;2023-10-08T12:45:52;0.30;;;0.30;;
11596;SDS011;5854;48.072;16.286;2023-10-08T12:48:23;0.30;;;0.30;;
11596;SDS011;5854;48.072;16.286;2023-10-08T12:50:58;0.20;;;0.20;;
11596;SDS011;5854;48.072;16.286;2023-10-08T12:53:31;0.40;;;0.40;;
11596;SDS011;5854;48.072;16.286;2023-10-08T12:56:17;0.30;;;0.30;;
11596;SDS011;5854;48.072;16.286;2023-10-08T12:59:01;0.40;;;0.40;;
11596;SDS011;5854;48.072;16.286;2023-10-08T13:01:33;0.38;;;0.38;;
11596;SDS011;5854;48.072;16.286;2023-10-08T13:04:07;0.40;;;0.40;;
11596;SDS011;5854;48.072;16.286;2023-10-08T13:06:41;0.75;;;0.50;;
11596;SDS011;5854;48.072;16.286;2023-10-08T13:09:22;0.77;;;0.38;;
11596;SDS011;5854;48.072;16.286;2023-10-08T13:11:58;0.75;;;0.50;;
11596;SDS011;5854;48.072;16.286;2023-10-08T13:14:29;0.30;;;0.30;;
11596;SDS011;5854;48.072;16.286;2023-10-08T13:17:03;0.65;;;0.40;;
11596;SDS011;5854;48.072;16.286;2023-10-08T13:19:38;1.63;;;0.30;;
11596;SDS011;5854;48.072;16.286;2023-10-08T13:22:11;0.47;;;0.35;;
11596;SDS011;5854;48.072;16.286;2023-10-08T13:24:48;0.52;;;0.45;;
11596;SDS011;5854;48.072;16.286;2023-10-08T13:27:23;0.30;;;0.30;;
11596;SDS011;5854;48.072;16.286;2023-10-08T13:29:54;0.30;;;0.30;;
11596;SDS011;5854;48.072;16.286;2023-10-08T13:32:29;0.47;;;0.40;;
11596;SDS011;5854;48.072;16.286;2023-10-08T13:35:01;0.30;;;0.30;;
11596;SDS011;5854;48.072;16.286;2023-10-08T13:37:39;0.40;;;0.40;;
11596;SDS011;5854;48.072;16.286;2023-10-08T13:40:08;0.80;;;0.57;;
11596;SDS011;5854;48.072;16.286;2023-10-08T13:42:42;0.40;;;0.40;;
11596;SDS011;5854;48.072;16.286;2023-10-08T13:45:17;0.60;;;0.38;;
11596;SDS011;5854;48.072;16.286;2023-10-08T13:47:53;1.38;;;0.60;;
11596;SDS011;5854;48.072;16.286;2023-10-08T13:50:29;1.25;;;0.40;;
11596;SDS011;5854;48.072;16.286;2023-10-08T13:53:01;0.50;;;0.40;;
11596;SDS011;5854;48.072;16.286;2023-10-08T13:55:31;0.38;;;0.38;;
11596;SDS011;5854;48.072;16.286;2023-10-08T13:58:12;1.95;;;0.70;;
11596;SDS011;5854;48.072;16.286;2023-10-08T14:00:42;0.25;;;0.25;;
11596;SDS011;5854;48.072;16.286;2023-10-08T14:03:19;0.43;;;0.43;;
11596;SDS011;5854;48.072;16.286;2023-10-08T14:05:51;0.55;;;0.40;;
11596;SDS011;5854;48.072;16.286;2023-10-08T14:08:30;0.50;;;0.50;;
11596;SDS011;5854;48.072;16.286;2023-10-08T14:11:00;1.08;;;0.60;;
11596;SDS011;5854;48.072;16.286;2023-10-08T14:13:38;0.70;;;0.70;;
11596;SDS011;5854;48.072;16.286;2023-10-08T14:16:10;1.02;;;0.60;;
11596;SDS011;5854;48.072;16.286;2023-10-08T14:18:41;1.17;;;0.45;;
11596;SDS011;5854;48.072;16.286;2023-10-08T14:21:19;1.15;;;0.82;;
11596;SDS011;5854;48.072;16.286;2023-10-08T14:23:50;0.68;;;0.50;;
11596;SDS011;5854;48.072;16.286;2023-10-08T14:26:19;0.85;;;0.55;;
11596;SDS011;5854;48.072;16.286;2023-10-08T14:28:48;0.95;;;0.50;;
11596;SDS011;5854;48.072;16.286;2023-10-08T14:31:24;1.02;;;0.70;;
11596;SDS011;5854;48.072;16.286;2023-10-08T14:33:57;1.13;;;0.50;;
11596;SDS011;5854;48.072;16.286;2023-10-08T14:36:44;1.27;;;0.52;;
11596;SDS011;5854;48.072;16.286;2023-10-08T14:39:30;0.40;;;0.40;;
11596;SDS011;5854;48.072;16.286;2023-10-08T14:42:16;0.75;;;0.60;;
11596;SDS011;5854;48.072;16.286;2023-10-08T14:45:02;1.50;;;0.40;;
11596;SDS011;5854;48.072;16.286;2023-10-08T14:47:41;2.08;;;0.50;;
11596;SDS011;5854;48.072;16.286;2023-10-08T14:50:12;3.17;;;0.70;;
11596;SDS011;5854;48.072;16.286;2023-10-08T14:52:47;1.40;;;0.57;;
11596;SDS011;5854;48.072;16.286;2023-10-08T14:55:17;2.17;;;0.75;;
11596;SDS011;5854;48.072;16.286;2023-10-08T14:57:51;1.20;;;0.70;;
11596;SDS011;5854;48.072;16.286;2023-10-08T15:00:21;0.60;;;0.60;;
11596;SDS011;5854;48.072;16.286;2023-10-08T15:02:53;2.47;;;0.77;;
11596;SDS011;5854;48.072;16.286;2023-10-08T15:05:23;0.93;;;0.82;;
11596;SDS011;5854;48.072;16.286;2023-10-08T15:07:51;0.60;;;0.60;;
11596;SDS011;5854;48.072;16.286;2023-10-08T15:10:19;6.05;;;0.52;;
11596;SDS011;5854;48.072;16.286;2023-10-08T15:12:48;1.55;;;0.70;;
11596;SDS011;5854;48.072;16.286;2023-10-08T15:15:17;1.00;;;0.60;;
11596;SDS011;5854;48.072;16.286;2023-10-08T15:17:49;2.20;;;0.65;;
11596;SDS011;5854;48.072;16.286;2023-10-08T15:20:21;1.25;;;1.15;;
11596;SDS011;5854;48.072;16.286;2023-10-08T15:22:50;0.57;;;0.57;;
11596;SDS011;5854;48.072;16.286;2023-10-08T15:25:20;0.68;;;0.60;;
11596;SDS011;5854;48.072;16.286;2023-10-08T15:27:48;1.48;;;0.60;;
11596;SDS011;5854;48.072;16.286;2023-10-08T15:30:17;0.68;;;0.65;;
11596;SDS011;5854;48.072;16.286;2023-10-08T15:32:46;0.50;;;0.50;;
11596;SDS011;5854;48.072;16.286;2023-10-08T15:35:19;0.63;;;0.50;;
11596;SDS011;5854;48.072;16.286;2023-10-08T15:37:49;10.10;;;0.80;;
11596;SDS011;5854;48.072;16.286;2023-10-08T15:40:19;1.17;;;0.57;;
11596;SDS011;5854;48.072;16.286;2023-10-08T15:42:49;0.60;;;0.60;;
11596;SDS011;5854;48.072;16.286;2023-10-08T15:45:20;0.80;;;0.60;;
11596;SDS011;5854;48.072;16.286;2023-10-08T15:47:50;0.82;;;0.80;;
11596;SDS011;5854;48.072;16.286;2023-10-08T15:50:21;2.55;;;0.73;;
11596;SDS011;5854;48.072;16.286;2023-10-08T15:52:51;1.02;;;0.65;;
11596;SDS011;5854;48.072;16.286;2023-10-08T15:55:19;0.57;;;0.55;;
11596;SDS011;5854;48.072;16.286;2023-10-08T15:57:49;1.77;;;0.70;;
11596;SDS011;5854;48.072;16.286;2023-10-08T16:00:18;0.90;;;0.60;;
11596;SDS011;5854;48.072;16.286;2023-10-08T16:02:47;2.55;;;1.13;;
11596;SDS011;5854;48.072;16.286;2023-10-08T16:05:16;0.50;;;0.50;;